Time;durP1;ratioP1;P1;durP2;ratioP2;P2;SDS_P1;SDS_P2;PMS_P1;PMS_P2;Temp;Humidity;BMP_temperature;BMP_pressure;BME280_temperature;BME280_humidity;BME280_pressure;Samples;Min_cycle;Max_cycle;Signal;HPM_P1;HPM_P2
2022/05/20 00:00:28;;;;;;;;;;;17.20;99.90;;;;;;5047550;28;20375;-73
2022/05/20 00:02:54;;;;;;;;;;;17.10;99.90;;;;;;5045614;28;19929;-73
2022/05/20 00:05:19;;;;;;;;;;;17.20;99.90;;;;;;5049414;28;19944;-72
2022/05/20 00:07:45;;;;;;;;;;;17.30;99.90;;;;;;5041847;28;20011;-73
2022/05/20 00:10:12;;;;;;;;;;;17.30;99.90;;;;;;5047390;28;20005;-73
2022/05/20 00:12:38;;;;;;;;;;;17.20;99.90;;;;;;5045491;28;19912;-74
2022/05/20 00:15:07;;;;;;;;;;;17.20;99.90;;;;;;5047696;28;19920;-74
2022/05/20 00:17:33;;;;;;;;;;;17.30;99.90;;;;;;5044491;28;19919;-74
2022/05/20 00:19:59;;;;;;;;;;;17.30;99.90;;;;;;5046666;28;20007;-73
2022/05/20 00:22:24;;;;;;;;;;;17.30;99.90;;;;;;5048648;28;19946;-73
2022/05/20 00:27:38;;;;;;;;;;;17.20;99.90;;;;;;5021505;28;20603;-74
2022/05/20 00:30:04;;;;;;;;;;;17.00;99.90;;;;;;5049189;28;19913;-72
2022/05/20 00:32:30;;;;;;;;;;;17.00;99.90;;;;;;5045609;28;20053;-73
2022/05/20 00:34:55;;;;;;;;;;;16.90;99.90;;;;;;5046958;28;19967;-73
2022/05/20 00:37:21;;;;;;;;;;;16.90;99.90;;;;;;5031929;28;20023;-74
2022/05/20 00:39:46;;;;;;;;;;;16.70;99.90;;;;;;5043614;28;19920;-73
2022/05/20 00:42:13;;;;;;;;;;;16.70;99.90;;;;;;5049524;28;20015;-73
2022/05/20 00:44:39;;;;;;;;;;;16.80;99.90;;;;;;5047281;28;20282;-73
2022/05/20 00:47:04;;;;;;;;;;;16.80;99.90;;;;;;5047547;28;19999;-74
2022/05/20 00:49:30;;;;;;;;;;;16.70;99.90;;;;;;5050144;28;19917;-74
2022/05/20 00:51:57;;;;;;;;;;;16.70;99.90;;;;;;5048558;28;19913;-74
2022/05/20 00:54:24;;;;;;;;;;;16.60;99.90;;;;;;5032695;28;19913;-73
2022/05/20 00:56:53;;;;;;;;;;;16.70;99.90;;;;;;5047021;28;19944;-73
2022/05/20 00:59:20;;;;;;;;;;;16.70;99.90;;;;;;5046803;28;20386;-74
2022/05/20 01:01:47;;;;;;;;;;;16.70;99.90;;;;;;5047038;28;19908;-73
2022/05/20 01:04:14;;;;;;;;;;;16.70;99.90;;;;;;5025989;28;20498;-73
2022/05/20 01:06:40;;;;;;;;;;;16.50;99.90;;;;;;5049002;28;19935;-74
2022/05/20 01:09:05;;;;;;;;;;;16.50;99.90;;;;;;5046066;28;19909;-74
2022/05/20 01:11:31;;;;;;;;;;;16.50;99.90;;;;;;5051256;28;19917;-73
2022/05/20 01:13:56;;;;;;;;;;;16.50;99.90;;;;;;5038188;28;19916;-74
2022/05/20 01:16:22;;;;;;;;;;;16.50;99.90;;;;;;5057815;28;19913;-73
2022/05/20 01:18:53;;;;;;;;;;;16.50;99.90;;;;;;5035321;28;19913;-73
2022/05/20 01:21:19;;;;;;;;;;;16.60;99.90;;;;;;5058576;28;20305;-73
2022/05/20 01:23:44;;;;;;;;;;;16.60;99.90;;;;;;5058800;28;19924;-73
2022/05/20 01:26:10;;;;;;;;;;;16.60;99.90;;;;;;5050836;28;19913;-74
2022/05/20 01:28:36;;;;;;;;;;;16.60;99.90;;;;;;5047955;28;19955;-74
2022/05/20 01:31:06;;;;;;;;;;;16.50;99.90;;;;;;5052074;28;19920;-74
2022/05/20 01:33:33;;;;;;;;;;;16.50;99.90;;;;;;5043679;28;19909;-74
2022/05/20 01:36:00;;;;;;;;;;;16.50;99.90;;;;;;5049133;28;19936;-77
2022/05/20 01:38:26;;;;;;;;;;;16.40;99.90;;;;;;5049595;28;20323;-74
2022/05/20 01:40:57;;;;;;;;;;;16.40;99.90;;;;;;5047714;28;19983;-74
2022/05/20 01:43:25;;;;;;;;;;;16.30;99.90;;;;;;5050193;28;19917;-74
2022/05/20 01:45:55;;;;;;;;;;;16.30;99.90;;;;;;5033626;28;20011;-72
2022/05/20 01:48:27;;;;;;;;;;;16.40;99.90;;;;;;5052644;28;19924;-73
2022/05/20 01:50:54;;;;;;;;;;;16.30;99.90;;;;;;5027017;28;19921;-73
2022/05/20 01:53:23;;;;;;;;;;;16.30;99.90;;;;;;5049604;28;19915;-73
2022/05/20 01:55:48;;;;;;;;;;;16.30;99.90;;;;;;5043861;28;20318;-73
2022/05/20 01:58:29;;;;;;;;;;;16.40;99.90;;;;;;5043209;28;19924;-74
2022/05/20 02:00:56;;;;;;;;;;;16.40;99.90;;;;;;5043083;28;20520;-74
2022/05/20 02:03:29;;;;;;;;;;;16.40;99.90;;;;;;5046872;28;19927;-73
2022/05/20 02:05:56;;;;;;;;;;;16.40;99.90;;;;;;5051680;28;19913;-73
2022/05/20 02:08:32;;;;;;;;;;;16.40;99.90;;;;;;5048529;28;19948;-73
2022/05/20 02:11:01;;;;;;;;;;;16.30;99.90;;;;;;5047677;28;20340;-74
2022/05/20 02:13:28;;;;;;;;;;;16.40;99.90;;;;;;5049636;28;19913;-73
2022/05/20 02:16:01;;;;;;;;;;;16.40;99.90;;;;;;5054008;28;19931;-73
2022/05/20 02:18:29;;;;;;;;;;;16.40;99.90;;;;;;5052221;28;20007;-73
2022/05/20 02:20:58;;;;;;;;;;;16.40;99.90;;;;;;5054456;28;19943;-73
2022/05/20 02:23:28;;;;;;;;;;;16.40;99.90;;;;;;5056153;28;20301;-74
2022/05/20 02:26:00;;;;;;;;;;;16.30;99.90;;;;;;5053381;28;19956;-74
2022/05/20 02:28:40;;;;;;;;;;;16.30;99.90;;;;;;5046507;28;19913;-73
2022/05/20 02:31:09;;;;;;;;;;;16.30;99.90;;;;;;5052856;28;20274;-73
2022/05/20 02:33:35;;;;;;;;;;;16.30;99.90;;;;;;5048618;28;19913;-73
2022/05/20 02:36:02;;;;;;;;;;;16.40;99.90;;;;;;5051661;28;20531;-73
2022/05/20 02:38:28;;;;;;;;;;;16.50;99.90;;;;;;5051705;28;20306;-74
2022/05/20 02:40:54;;;;;;;;;;;16.40;99.90;;;;;;5052285;28;19924;-74
2022/05/20 02:43:20;;;;;;;;;;;16.40;99.90;;;;;;5049912;28;19936;-72
2022/05/20 02:45:46;;;;;;;;;;;16.40;99.90;;;;;;5048165;28;19962;-73
2022/05/20 02:48:13;;;;;;;;;;;16.30;99.90;;;;;;5049724;28;20286;-73
2022/05/20 02:50:39;;;;;;;;;;;16.30;99.90;;;;;;5051478;28;19913;-73
2022/05/20 02:53:04;;;;;;;;;;;16.30;99.90;;;;;;5058621;28;19980;-73
2022/05/20 02:55:30;;;;;;;;;;;16.20;99.90;;;;;;5032843;28;20023;-73
2022/05/20 02:57:56;;;;;;;;;;;16.20;99.90;;;;;;5044262;28;19927;-72
2022/05/20 03:05:51;;;;;;;;;;;16.30;99.90;;;;;;5050274;28;19966;-72
2022/05/20 03:08:17;;;;;;;;;;;16.30;99.90;;;;;;5046469;28;20494;-73
2022/05/20 03:10:43;;;;;;;;;;;16.20;99.90;;;;;;5056139;28;19956;-74
2022/05/20 03:13:08;;;;;;;;;;;16.00;99.90;;;;;;5050467;28;20008;-74
2022/05/20 03:15:35;;;;;;;;;;;16.10;99.90;;;;;;5048840;28;19939;-73
2022/05/20 03:18:01;;;;;;;;;;;16.00;99.90;;;;;;5032934;28;19924;-73
2022/05/20 03:20:26;;;;;;;;;;;16.00;99.90;;;;;;5048561;28;19977;-73
2022/05/20 03:22:52;;;;;;;;;;;16.00;99.90;;;;;;5042272;28;20023;-73
2022/05/20 03:25:20;;;;;;;;;;;16.00;99.90;;;;;;5046803;28;19913;-73
2022/05/20 03:27:46;;;;;;;;;;;16.00;99.90;;;;;;5048894;28;19917;-72
2022/05/20 03:30:12;;;;;;;;;;;16.00;99.90;;;;;;5050744;28;20514;-73
2022/05/20 03:32:38;;;;;;;;;;;16.00;99.90;;;;;;5054221;28;19913;-73
2022/05/20 03:35:04;;;;;;;;;;;16.00;99.90;;;;;;5049862;28;19923;-72
2022/05/20 03:37:30;;;;;;;;;;;16.00;99.90;;;;;;5048169;28;19975;-73
2022/05/20 03:39:56;;;;;;;;;;;16.00;99.90;;;;;;5050134;28;19921;-73
2022/05/20 03:42:23;;;;;;;;;;;16.00;99.90;;;;;;5048339;28;19924;-72
2022/05/20 03:44:49;;;;;;;;;;;16.00;99.90;;;;;;5050078;28;19913;-73
2022/05/20 03:47:14;;;;;;;;;;;16.00;99.90;;;;;;5049876;28;20031;-73
2022/05/20 03:49:40;;;;;;;;;;;16.10;99.90;;;;;;5052366;28;20366;-73
2022/05/20 03:52:07;;;;;;;;;;;16.00;99.90;;;;;;5045023;28;19921;-74
2022/05/20 03:54:33;;;;;;;;;;;16.00;99.90;;;;;;5030935;28;19913;-72
2022/05/20 03:56:59;;;;;;;;;;;16.10;99.90;;;;;;5045683;28;20012;-72
2022/05/20 03:59:25;;;;;;;;;;;16.00;99.90;;;;;;5031040;28;19917;-73
2022/05/20 04:01:57;;;;;;;;;;;16.10;99.90;;;;;;5046003;28;19922;-73
2022/05/20 04:04:31;;;;;;;;;;;16.10;99.90;;;;;;5048159;28;20031;-72
2022/05/20 04:06:58;;;;;;;;;;;16.10;99.90;;;;;;5043690;28;20370;-72
2022/05/20 04:09:23;;;;;;;;;;;16.10;99.90;;;;;;5048504;28;20306;-72
2022/05/20 04:11:52;;;;;;;;;;;16.20;99.90;;;;;;5028454;28;19916;-73
2022/05/20 04:14:17;;;;;;;;;;;16.10;99.90;;;;;;5047804;28;20428;-72
2022/05/20 04:16:43;;;;;;;;;;;16.10;99.90;;;;;;5049228;28;19917;-72
2022/05/20 04:19:09;;;;;;;;;;;16.10;99.90;;;;;;5048366;28;19929;-72
2022/05/20 04:21:34;;;;;;;;;;;16.10;99.90;;;;;;5050687;28;19913;-72
2022/05/20 04:24:00;;;;;;;;;;;16.10;99.90;;;;;;5024501;28;19966;-72
2022/05/20 04:26:26;;;;;;;;;;;16.10;99.90;;;;;;5039882;28;19982;-72
2022/05/20 04:28:52;;;;;;;;;;;16.20;99.90;;;;;;5050324;28;20331;-72
2022/05/20 04:31:17;;;;;;;;;;;16.30;99.90;;;;;;5049468;28;20011;-73
2022/05/20 04:33:43;;;;;;;;;;;16.30;99.90;;;;;;5047411;28;19972;-73
2022/05/20 04:36:08;;;;;;;;;;;16.50;99.90;;;;;;5031817;28;19913;-73
2022/05/20 04:38:34;;;;;;;;;;;16.60;99.90;;;;;;5051694;28;20208;-73
2022/05/20 04:49:12;;;;;;;;;;;16.70;99.90;;;;;;5056709;28;19936;-73
2022/05/20 04:51:39;;;;;;;;;;;16.80;99.90;;;;;;5053648;28;19913;-73
2022/05/20 04:56:50;;;;;;;;;;;16.80;99.90;;;;;;5048320;28;20226;-72
2022/05/20 04:59:16;;;;;;;;;;;16.80;99.90;;;;;;5045571;28;20003;-72
2022/05/20 05:01:41;;;;;;;;;;;17.00;99.90;;;;;;5052335;28;19920;-72
2022/05/20 05:04:07;;;;;;;;;;;17.10;99.90;;;;;;5046294;28;19917;-72
2022/05/20 05:06:33;;;;;;;;;;;17.20;99.90;;;;;;5046687;28;20397;-72
2022/05/20 05:08:59;;;;;;;;;;;17.30;99.90;;;;;;5042704;28;19921;-73
2022/05/20 05:11:25;;;;;;;;;;;17.20;99.90;;;;;;5049303;28;20449;-73
2022/05/20 05:13:50;;;;;;;;;;;17.20;99.90;;;;;;5044258;28;19921;-72
2022/05/20 05:16:16;;;;;;;;;;;17.20;99.90;;;;;;5048174;28;19916;-72
2022/05/20 05:18:42;;;;;;;;;;;17.20;99.90;;;;;;5046479;28;19927;-71
2022/05/20 05:21:07;;;;;;;;;;;17.30;99.90;;;;;;5045458;28;19951;-73
2022/05/20 05:23:33;;;;;;;;;;;17.40;99.90;;;;;;5048822;28;19917;-73
2022/05/20 05:25:58;;;;;;;;;;;17.50;99.90;;;;;;5047776;28;20813;-72
2022/05/20 05:28:24;;;;;;;;;;;17.50;99.90;;;;;;5029605;28;20277;-73
2022/05/20 05:30:50;;;;;;;;;;;17.60;99.90;;;;;;5049170;28;19929;-73
2022/05/20 05:33:17;;;;;;;;;;;17.60;99.90;;;;;;5044126;28;20278;-73
2022/05/20 05:35:42;;;;;;;;;;;17.60;99.90;;;;;;5047561;28;20159;-72
2022/05/20 05:38:08;;;;;;;;;;;17.70;99.90;;;;;;5051613;28;20019;-72
2022/05/20 05:40:34;;;;;;;;;;;17.90;99.90;;;;;;5051540;28;19919;-72
2022/05/20 05:43:00;;;;;;;;;;;18.00;99.90;;;;;;5051500;28;19917;-72
2022/05/20 05:45:26;;;;;;;;;;;18.20;99.90;;;;;;5050206;28;19920;-73
2022/05/20 05:47:54;;;;;;;;;;;18.20;99.90;;;;;;5050222;28;20015;-73
2022/05/20 05:50:20;;;;;;;;;;;18.20;99.90;;;;;;5052299;28;19920;-73
2022/05/20 05:52:46;;;;;;;;;;;18.40;99.90;;;;;;5049726;28;20001;-73
2022/05/20 05:55:11;;;;;;;;;;;18.60;99.90;;;;;;5049854;28;19921;-73
2022/05/20 05:57:37;;;;;;;;;;;18.70;99.90;;;;;;5049244;28;19936;-72
2022/05/20 06:00:04;;;;;;;;;;;18.80;99.90;;;;;;5052440;28;19919;-72
2022/05/20 06:02:29;;;;;;;;;;;18.80;99.90;;;;;;5052017;28;19963;-72
2022/05/20 06:04:55;;;;;;;;;;;18.90;99.90;;;;;;5049670;28;19913;-73
2022/05/20 06:07:21;;;;;;;;;;;19.10;99.90;;;;;;5045213;28;19983;-73
2022/05/20 06:09:46;;;;;;;;;;;19.10;99.90;;;;;;5051122;28;19995;-74
2022/05/20 06:12:12;;;;;;;;;;;19.30;99.90;;;;;;5050341;28;19943;-73
2022/05/20 06:14:38;;;;;;;;;;;19.50;99.90;;;;;;5051529;28;19928;-72
2022/05/20 06:17:04;;;;;;;;;;;19.60;99.90;;;;;;5049065;28;19920;-73
2022/05/20 06:19:29;;;;;;;;;;;19.70;99.90;;;;;;5052916;28;19966;-73
2022/05/20 06:21:55;;;;;;;;;;;19.80;99.90;;;;;;5034550;28;19913;-75
2022/05/20 06:24:21;;;;;;;;;;;19.90;99.90;;;;;;5046589;28;19920;-73
2022/05/20 06:26:46;;;;;;;;;;;20.00;99.90;;;;;;5045867;28;21194;-73
2022/05/20 06:29:12;;;;;;;;;;;20.20;99.90;;;;;;5049130;28;19912;-73
2022/05/20 06:31:38;;;;;;;;;;;20.30;99.90;;;;;;5051304;28;19966;-73
2022/05/20 06:34:03;;;;;;;;;;;20.40;99.90;;;;;;5051884;28;20358;-73
2022/05/20 06:41:54;;;;;;;;;;;20.90;99.90;;;;;;5052937;28;19917;-74
2022/05/20 06:44:20;;;;;;;;;;;21.00;99.90;;;;;;5047388;28;20000;-74
2022/05/20 06:46:46;;;;;;;;;;;21.00;99.90;;;;;;5047589;28;20212;-73
2022/05/20 06:49:12;;;;;;;;;;;21.10;99.90;;;;;;5049627;28;19957;-73
2022/05/20 06:51:38;;;;;;;;;;;21.10;99.90;;;;;;5051300;28;20283;-73
2022/05/20 06:54:04;;;;;;;;;;;21.30;99.90;;;;;;5049823;28;19913;-73
2022/05/20 06:56:30;;;;;;;;;;;21.40;99.90;;;;;;5051976;28;19920;-73
2022/05/20 06:58:57;;;;;;;;;;;21.60;99.90;;;;;;5050398;28;19921;-74
2022/05/20 07:01:22;;;;;;;;;;;21.70;99.90;;;;;;5034000;28;19916;-73
2022/05/20 07:03:48;;;;;;;;;;;21.70;99.90;;;;;;5049503;28;19924;-72
2022/05/20 07:06:15;;;;;;;;;;;21.80;99.90;;;;;;5051114;28;19913;-75
2022/05/20 07:08:40;;;;;;;;;;;21.90;99.90;;;;;;5049138;28;20289;-73
2022/05/20 07:11:06;;;;;;;;;;;22.10;99.90;;;;;;5049449;28;19916;-73
2022/05/20 07:13:32;;;;;;;;;;;22.30;99.90;;;;;;5047802;28;19959;-69
2022/05/20 07:15:58;;;;;;;;;;;22.40;99.90;;;;;;5050647;28;20003;-70
2022/05/20 07:18:24;;;;;;;;;;;22.20;99.90;;;;;;5048705;28;20311;-70
2022/05/20 07:20:50;;;;;;;;;;;22.30;99.90;;;;;;5029070;28;20363;-69
2022/05/20 07:23:15;;;;;;;;;;;22.40;99.90;;;;;;5048921;28;19963;-69
2022/05/20 07:25:41;;;;;;;;;;;22.40;99.90;;;;;;5047994;28;19916;-69
2022/05/20 07:28:07;;;;;;;;;;;22.30;99.90;;;;;;5030391;28;20512;-68
2022/05/20 07:30:32;;;;;;;;;;;22.20;99.90;;;;;;5049022;28;19913;-68
2022/05/20 07:32:58;;;;;;;;;;;22.20;99.90;;;;;;5031056;28;20382;-70
2022/05/20 07:35:23;;;;;;;;;;;22.10;99.90;;;;;;5048736;28;19913;-69
2022/05/20 07:37:50;;;;;;;;;;;22.00;99.90;;;;;;5050124;28;19974;-67
2022/05/20 07:40:17;;;;;;;;;;;21.90;99.90;;;;;;5031950;28;20267;-67
2022/05/20 07:42:42;;;;;;;;;;;21.90;99.90;;;;;;5032564;28;20362;-68
2022/05/20 07:45:08;;;;;;;;;;;21.70;99.90;;;;;;5052937;28;19955;-69
2022/05/20 07:47:43;;;;;;;;;;;21.50;99.90;;;;;;5047398;28;19920;-69
2022/05/20 07:50:08;;;;;;;;;;;21.50;99.90;;;;;;5051006;28;20359;-69
2022/05/20 07:55:22;;;;;;;;;;;21.50;99.90;;;;;;5049495;28;19962;-69
2022/05/20 07:57:48;;;;;;;;;;;21.50;99.90;;;;;;5047276;28;19921;-67
2022/05/20 08:00:14;;;;;;;;;;;21.60;99.90;;;;;;5051112;28;19995;-67
2022/05/20 08:02:42;;;;;;;;;;;21.60;99.90;;;;;;5050623;28;19931;-67
2022/05/20 08:05:08;;;;;;;;;;;21.70;99.90;;;;;;5027275;28;19913;-69
2022/05/20 08:07:36;;;;;;;;;;;21.60;99.90;;;;;;5048321;28;19913;-69
2022/05/20 08:10:06;;;;;;;;;;;21.70;99.90;;;;;;5051105;28;19913;-69
2022/05/20 08:12:32;;;;;;;;;;;21.70;99.90;;;;;;5057060;28;19913;-70
2022/05/20 08:14:58;;;;;;;;;;;21.80;99.90;;;;;;5049977;28;19913;-69
2022/05/20 08:17:26;;;;;;;;;;;21.70;99.90;;;;;;5047520;28;19927;-69
2022/05/20 08:19:53;;;;;;;;;;;21.90;99.90;;;;;;5030057;28;19920;-70
2022/05/20 08:22:22;;;;;;;;;;;21.80;99.90;;;;;;5046475;28;20282;-69
2022/05/20 08:24:49;;;;;;;;;;;21.80;99.90;;;;;;5031319;28;19913;-68
2022/05/20 08:27:15;;;;;;;;;;;21.80;99.90;;;;;;5050666;28;19912;-69
2022/05/20 08:29:40;;;;;;;;;;;21.90;99.90;;;;;;5047607;28;20545;-67
2022/05/20 08:32:07;;;;;;;;;;;22.00;99.90;;;;;;5048775;28;19977;-68
2022/05/20 08:34:33;;;;;;;;;;;22.00;99.90;;;;;;5026294;28;19912;-68
2022/05/20 08:36:58;;;;;;;;;;;22.00;99.90;;;;;;5050451;28;20275;-68
2022/05/20 08:39:24;;;;;;;;;;;22.00;99.90;;;;;;5048319;28;19913;-69
2022/05/20 08:41:52;;;;;;;;;;;21.90;99.90;;;;;;5052995;28;19913;-70
2022/05/20 08:44:20;;;;;;;;;;;21.90;99.90;;;;;;5050411;28;19962;-67
2022/05/20 08:46:47;;;;;;;;;;;21.80;99.90;;;;;;5042402;28;19913;-70
2022/05/20 08:49:14;;;;;;;;;;;21.90;99.90;;;;;;5041670;28;19940;-68
2022/05/20 08:51:41;;;;;;;;;;;21.90;99.90;;;;;;5046997;28;20000;-68
2022/05/20 08:54:07;;;;;;;;;;;22.00;99.90;;;;;;5032417;28;20825;-69
2022/05/20 08:56:36;;;;;;;;;;;22.00;99.90;;;;;;5055208;28;19923;-68
2022/05/20 08:59:03;;;;;;;;;;;22.00;99.90;;;;;;5046432;28;20446;-68
2022/05/20 09:01:30;;;;;;;;;;;22.10;99.90;;;;;;5050582;28;20035;-67
2022/05/20 09:03:56;;;;;;;;;;;22.10;99.90;;;;;;5045695;28;20383;-67
2022/05/20 09:06:22;;;;;;;;;;;22.10;99.90;;;;;;5053022;28;19923;-68
2022/05/20 09:09:06;;;;;;;;;;;22.10;99.90;;;;;;5048997;28;19913;-67
2022/05/20 09:11:31;;;;;;;;;;;22.30;99.90;;;;;;5032361;28;19921;-71
2022/05/20 09:16:55;;;;;;;;;;;22.20;99.90;;;;;;5053948;28;19988;-67
2022/05/20 09:19:27;;;;;;;;;;;22.20;99.90;;;;;;5032515;28;20291;-67
2022/05/20 09:22:08;;;;;;;;;;;22.30;99.90;;;;;;5053882;28;20270;-67
2022/05/20 09:24:43;;;;;;;;;;;22.40;99.90;;;;;;5047405;28;19923;-69
2022/05/20 09:27:13;;;;;;;;;;;22.40;99.90;;;;;;5046915;28;21256;-68
2022/05/20 09:29:54;;;;;;;;;;;22.50;99.90;;;;;;5048755;28;19920;-69
2022/05/20 09:32:19;;;;;;;;;;;22.60;99.90;;;;;;5052923;28;19973;-70
2022/05/20 09:34:45;;;;;;;;;;;22.50;99.90;;;;;;5048013;28;20003;-69
2022/05/20 09:37:10;;;;;;;;;;;22.70;99.90;;;;;;5048168;28;19975;-68
2022/05/20 09:39:36;;;;;;;;;;;22.70;99.90;;;;;;5050840;28;19928;-70
2022/05/20 09:42:12;;;;;;;;;;;22.80;99.90;;;;;;5047686;28;20023;-69
2022/05/20 09:44:38;;;;;;;;;;;22.90;99.90;;;;;;5027835;28;20018;-69
2022/05/20 09:47:10;;;;;;;;;;;22.90;99.90;;;;;;5048402;28;20365;-68
2022/05/20 09:49:36;;;;;;;;;;;23.00;99.90;;;;;;5048515;28;19923;-68
2022/05/20 09:52:02;;;;;;;;;;;23.20;99.90;;;;;;5048938;28;19909;-69
2022/05/20 09:54:28;;;;;;;;;;;23.20;99.90;;;;;;5031087;28;19913;-68
2022/05/20 09:57:12;;;;;;;;;;;23.30;99.90;;;;;;5047409;28;20429;-68
2022/05/20 09:59:43;;;;;;;;;;;23.40;99.90;;;;;;5042809;28;20010;-68
2022/05/20 10:02:08;;;;;;;;;;;23.30;99.90;;;;;;5047335;28;19967;-67
2022/05/20 10:04:43;;;;;;;;;;;23.30;99.90;;;;;;5045215;28;20361;-67
2022/05/20 10:07:13;;;;;;;;;;;23.30;99.90;;;;;;5042630;28;19936;-68
2022/05/20 10:10:01;;;;;;;;;;;23.50;99.90;;;;;;5046255;28;20314;-68
2022/05/20 10:12:29;;;;;;;;;;;23.50;99.90;;;;;;5036369;28;20007;-68
2022/05/20 10:14:57;;;;;;;;;;;23.40;99.90;;;;;;5049406;28;19912;-68
2022/05/20 10:17:26;;;;;;;;;;;23.40;99.90;;;;;;5046080;28;19967;-67
2022/05/20 10:20:12;;;;;;;;;;;23.40;99.90;;;;;;5048186;28;19959;-67
2022/05/20 10:22:39;;;;;;;;;;;23.20;99.90;;;;;;5048614;28;19924;-68
2022/05/20 10:25:25;;;;;;;;;;;23.10;99.90;;;;;;5043610;28;19913;-67
2022/05/20 10:28:06;;;;;;;;;;;23.00;99.90;;;;;;5053373;28;19912;-68
2022/05/20 10:33:22;;;;;;;;;;;23.20;99.90;;;;;;5053855;28;19942;-68
2022/05/20 10:36:00;;;;;;;;;;;23.20;99.90;;;;;;5051831;28;20353;-68
2022/05/20 10:38:38;;;;;;;;;;;23.30;99.90;;;;;;5050333;28;20271;-70
2022/05/20 10:41:33;;;;;;;;;;;23.40;99.90;;;;;;5045947;28;19952;-70
2022/05/20 10:50:21;;;;;;;;;;;23.70;99.90;;;;;;5050082;28;20283;-69
2022/05/20 10:53:06;;;;;;;;;;;23.80;99.90;;;;;;5018710;28;20272;-69
2022/05/20 10:55:37;;;;;;;;;;;23.80;99.90;;;;;;5033241;28;19916;-69
2022/05/20 10:58:16;;;;;;;;;;;23.80;99.90;;;;;;5047789;28;19948;-69
2022/05/20 11:00:47;;;;;;;;;;;23.60;99.90;;;;;;5049753;28;19917;-68
2022/05/20 11:03:13;;;;;;;;;;;23.50;99.90;;;;;;5050668;28;19917;-69
2022/05/20 11:05:57;;;;;;;;;;;23.50;99.90;;;;;;5051596;28;20240;-69
2022/05/20 11:08:28;;;;;;;;;;;23.50;99.90;;;;;;5048023;28;20012;-69
2022/05/20 11:11:00;;;;;;;;;;;23.50;99.90;;;;;;5051841;28;19912;-69
2022/05/20 11:13:28;;;;;;;;;;;23.60;99.90;;;;;;5051116;28;19913;-69
2022/05/20 11:16:03;;;;;;;;;;;23.70;99.90;;;;;;5052395;28;19913;-68
2022/05/20 11:18:37;;;;;;;;;;;23.70;99.90;;;;;;5046793;28;19963;-68
2022/05/20 11:21:18;;;;;;;;;;;23.70;99.90;;;;;;5035436;28;19913;-68
2022/05/20 11:23:47;;;;;;;;;;;23.60;99.90;;;;;;5049072;28;19924;-68
2022/05/20 11:26:22;;;;;;;;;;;23.50;99.90;;;;;;5035750;28;20004;-69
2022/05/20 11:28:56;;;;;;;;;;;23.30;99.90;;;;;;5048857;28;20263;-69
2022/05/20 11:31:41;;;;;;;;;;;23.30;99.90;;;;;;5052273;28;19918;-68
2022/05/20 11:34:09;;;;;;;;;;;23.40;99.90;;;;;;5049651;28;19925;-69
2022/05/20 11:36:38;;;;;;;;;;;23.50;99.90;;;;;;5051438;28;19913;-68
2022/05/20 11:39:09;;;;;;;;;;;23.30;99.90;;;;;;5050906;28;19912;-69
2022/05/20 11:41:42;;;;;;;;;;;23.30;99.90;;;;;;5051635;28;19913;-69
2022/05/20 11:44:22;;;;;;;;;;;23.30;99.90;;;;;;5049374;28;19978;-67
2022/05/20 11:46:48;;;;;;;;;;;23.40;99.90;;;;;;5049956;28;19975;-69
2022/05/20 11:49:16;;;;;;;;;;;23.40;99.90;;;;;;5049961;28;20304;-69
2022/05/20 11:51:42;;;;;;;;;;;23.50;99.90;;;;;;5050982;28;20285;-69
2022/05/20 11:54:31;;;;;;;;;;;23.50;99.90;;;;;;5051750;28;20004;-68
2022/05/20 11:56:58;;;;;;;;;;;23.40;99.90;;;;;;5054383;28;19916;-68
2022/05/20 11:59:30;;;;;;;;;;;23.40;99.90;;;;;;5051808;28;20015;-70
2022/05/20 12:01:57;;;;;;;;;;;23.50;99.90;;;;;;5049748;28;19924;-70
2022/05/20 12:04:24;;;;;;;;;;;23.50;99.90;;;;;;5053462;28;19999;-69
2022/05/20 12:07:01;;;;;;;;;;;23.40;99.90;;;;;;5053752;28;19909;-69
2022/05/20 12:09:26;;;;;;;;;;;23.20;99.90;;;;;;5046206;28;19974;-68
2022/05/20 12:12:15;;;;;;;;;;;23.20;99.90;;;;;;5056750;28;20289;-70
2022/05/20 12:14:56;;;;;;;;;;;23.30;99.90;;;;;;5044680;28;20471;-70
2022/05/20 12:17:28;;;;;;;;;;;23.30;99.90;;;;;;5050439;28;19917;-68
2022/05/20 12:25:36;;;;;;;;;;;23.30;99.90;;;;;;5050895;28;19983;-69
2022/05/20 12:28:09;;;;;;;;;;;23.40;99.90;;;;;;5046626;28;20400;-69
2022/05/20 12:30:45;;;;;;;;;;;23.50;99.90;;;;;;5051612;28;19912;-69
2022/05/20 12:33:22;;;;;;;;;;;23.50;99.90;;;;;;5028221;28;19967;-69
2022/05/20 12:36:06;;;;;;;;;;;23.50;99.90;;;;;;5042661;28;20271;-68
2022/05/20 12:38:32;;;;;;;;;;;23.60;99.90;;;;;;5044775;28;20012;-68
2022/05/20 12:40:58;;;;;;;;;;;23.60;99.90;;;;;;5042557;28;20012;-69
2022/05/20 12:43:46;;;;;;;;;;;23.50;99.90;;;;;;5019922;28;19916;-68
2022/05/20 12:46:16;;;;;;;;;;;23.50;99.90;;;;;;5042794;28;19920;-70
2022/05/20 12:48:41;;;;;;;;;;;23.30;99.90;;;;;;5042839;28;19917;-70
2022/05/20 12:51:13;;;;;;;;;;;23.20;99.90;;;;;;5037367;28;20322;-71
2022/05/20 12:53:38;;;;;;;;;;;23.20;99.90;;;;;;5046273;28;20290;-69
2022/05/20 12:56:05;;;;;;;;;;;23.00;99.90;;;;;;5027698;28;19923;-67
2022/05/20 12:58:32;;;;;;;;;;;23.20;99.90;;;;;;5045661;28;19917;-68
2022/05/20 13:00:59;;;;;;;;;;;23.30;99.90;;;;;;5040443;28;19913;-68
2022/05/20 13:03:40;;;;;;;;;;;23.40;99.90;;;;;;5036529;28;20329;-69
2022/05/20 13:06:17;;;;;;;;;;;23.30;99.90;;;;;;5043275;28;19921;-67
2022/05/20 13:08:45;;;;;;;;;;;23.40;99.90;;;;;;5047518;28;19913;-68
2022/05/20 13:11:11;;;;;;;;;;;23.40;99.90;;;;;;5023835;28;19917;-69
2022/05/20 13:13:37;;;;;;;;;;;23.20;99.90;;;;;;5038343;28;19913;-67
2022/05/20 13:16:04;;;;;;;;;;;23.20;99.90;;;;;;5042835;28;19919;-68
2022/05/20 13:18:32;;;;;;;;;;;23.20;99.90;;;;;;5055042;28;20270;-69
2022/05/20 13:20:59;;;;;;;;;;;23.20;99.90;;;;;;5051681;28;19971;-68
2022/05/20 13:23:27;;;;;;;;;;;23.20;99.90;;;;;;5048147;28;20016;-67
2022/05/20 13:25:52;;;;;;;;;;;22.90;99.90;;;;;;5050932;28;19958;-68
2022/05/20 13:28:22;;;;;;;;;;;22.90;99.90;;;;;;5051896;28;20458;-68
2022/05/20 13:30:48;;;;;;;;;;;22.80;99.90;;;;;;5058496;28;19998;-69
2022/05/20 13:33:13;;;;;;;;;;;23.00;99.90;;;;;;5063513;28;19908;-68
2022/05/20 13:35:52;;;;;;;;;;;23.00;99.90;;;;;;5061229;28;19909;-70
2022/05/20 13:38:18;;;;;;;;;;;23.00;99.90;;;;;;5053457;28;19912;-68
2022/05/20 13:40:44;;;;;;;;;;;23.20;99.90;;;;;;5046229;28;19912;-69
2022/05/20 13:43:11;;;;;;;;;;;23.30;99.90;;;;;;5054118;28;20004;-69
2022/05/20 13:51:14;;;;;;;;;;;23.50;99.90;;;;;;5045958;28;19920;-69
2022/05/20 13:53:41;;;;;;;;;;;23.50;99.90;;;;;;5046015;28;19913;-69
2022/05/20 13:56:07;;;;;;;;;;;23.60;99.90;;;;;;5050258;28;19909;-69
2022/05/20 13:58:34;;;;;;;;;;;23.80;99.90;;;;;;5059544;28;19924;-71
2022/05/20 14:01:04;;;;;;;;;;;23.80;99.90;;;;;;5048669;28;20007;-68
2022/05/20 14:03:34;;;;;;;;;;;23.70;99.90;;;;;;5047042;28;20362;-70
2022/05/20 14:06:00;;;;;;;;;;;23.40;99.90;;;;;;5052004;28;19923;-71
2022/05/20 14:08:26;;;;;;;;;;;23.50;99.90;;;;;;5057840;28;20353;-70
2022/05/20 14:10:53;;;;;;;;;;;23.50;99.90;;;;;;5042108;28;20263;-70
2022/05/20 14:13:35;;;;;;;;;;;23.50;99.90;;;;;;5034232;28;20401;-70
2022/05/20 14:16:01;;;;;;;;;;;23.60;99.90;;;;;;5035135;28;19913;-71
2022/05/20 14:18:29;;;;;;;;;;;23.70;99.90;;;;;;5035173;28;19909;-70
2022/05/20 14:20:58;;;;;;;;;;;23.60;99.90;;;;;;5044615;28;19912;-69
2022/05/20 14:23:25;;;;;;;;;;;23.50;99.90;;;;;;5053664;28;19942;-70
2022/05/20 14:25:53;;;;;;;;;;;23.20;99.90;;;;;;5053276;28;20003;-68
2022/05/20 14:28:20;;;;;;;;;;;23.20;99.90;;;;;;5053992;28;20273;-69
2022/05/20 14:30:47;;;;;;;;;;;23.20;99.90;;;;;;5052756;28;19913;-68
2022/05/20 14:33:22;;;;;;;;;;;23.40;99.90;;;;;;5054116;28;19909;-69
2022/05/20 14:35:50;;;;;;;;;;;23.50;99.90;;;;;;5054298;28;19912;-69
2022/05/20 14:38:18;;;;;;;;;;;23.50;99.90;;;;;;5054053;28;20334;-69
2022/05/20 14:40:44;;;;;;;;;;;23.30;99.90;;;;;;5048272;28;20312;-68
2022/05/20 14:43:35;;;;;;;;;;;23.50;99.90;;;;;;5053524;28;19981;-69
2022/05/20 14:46:02;;;;;;;;;;;23.50;99.90;;;;;;5030040;28;19916;-69
2022/05/20 14:48:37;;;;;;;;;;;23.60;99.90;;;;;;5050324;28;20106;-69
2022/05/20 14:51:02;;;;;;;;;;;23.40;99.90;;;;;;5032318;28;19920;-61
2022/05/20 14:53:34;;;;;;;;;;;23.60;99.90;;;;;;5047446;28;19917;-61
2022/05/20 14:56:01;;;;;;;;;;;23.60;99.90;;;;;;5026065;28;19921;-61
2022/05/20 14:58:29;;;;;;;;;;;23.70;99.90;;;;;;5044182;28;19916;-61
2022/05/20 15:00:58;;;;;;;;;;;23.70;99.90;;;;;;5044370;28;19913;-59
2022/05/20 15:03:24;;;;;;;;;;;23.60;99.90;;;;;;5036971;28;19985;-60
2022/05/20 15:05:51;;;;;;;;;;;23.80;99.90;;;;;;5042540;28;19912;-58
2022/05/20 15:08:17;;;;;;;;;;;23.80;99.90;;;;;;5043472;28;19916;-59
2022/05/20 15:10:51;;;;;;;;;;;23.80;99.90;;;;;;5046347;28;19920;-59
2022/05/20 15:13:17;;;;;;;;;;;23.80;99.90;;;;;;5052751;28;19970;-59